Hauptseite
METAR-TAF:

METAR-TAF

Flughäfen :

Flughafen Fuaʻamotu

Tongatapu, Tonga

Breite: 21-14S, Länge: 175-09W, Höhe: 38 m

Beobachtung

Neuester Wetterbericht von vor 53 Minuten, um 10:00 UTC
Wind 6 kt aus Ost/Südost
Temperatur 21°C
Luftfeuchtigkeit 83%
Luftdruck 1016 hPa
Sichtweite 10 km oder mehr
Leicht bewölkt in der Höhe von 1600 ft

METAR: NFTF 141000Z 12006KT 9999 FEW016 21/18 Q1016

Zeit: 00:53 (10:53 UTC)

Prognose

Neuester Wetterbericht von vor 5 Stunden und 45 Minuten, um 05:08 UTC
Gültige Prognose vom 14 um 06 UTC bis 15 um 06 UTC
Wind 8 kt aus Südost
Sichtweite 10 km oder mehr
Aufgelockert bewölkt in der Höhe von 1700 ft

TAF: NFTF 140508Z 1406/1506 13008KT 9999 SCT017

Wetterbeobachtungen und Prognosen von mehr als 4000 Flughäfen (METAR und TAF Bericht).

Die verfügbaren Stationen werden durch gelbe und rote Markierungen auf der Karte dargestellt.

Führen Sie die Maus auf sie, um den Namen der Station zu sehen.

Darauf klicken, um die Beobachtung von Wetterbeobachtungen und Prognosen zu sehen.

Um die Karte zu ändern : klicken Sie auf den grünen Tasten mit einem schwarzen Kreuz Zum Vergrößern, auf den grünen Button mit einem Gedankenstrich zu verkleinern, oder auf die grünen Pfeile für benachbarte Karten.


METAR-TAF: